Time;durP1;ratioP1;P1;durP2;ratioP2;P2;SDS_P1;SDS_P2;PMS_P1;PMS_P2;Temp;Humidity;BMP_temperature;BMP_pressure;BME280_temperature;BME280_humidity;BME280_pressure;Samples;Min_cycle;Max_cycle;Signal;HPM_P1;HPM_P2
2023/01/23 00:01:47;;;;;;;13.43;10.18;;;22.50;40.50;;;;;;6108333;28;83639;-52
2023/01/23 00:04:48;;;;;;;13.68;10.25;;;22.50;40.60;;;;;;6117541;28;83274;-49
2023/01/23 00:07:48;;;;;;;15.15;10.95;;;22.50;40.60;;;;;;6129603;28;86609;-49
2023/01/23 00:10:49;;;;;;;14.18;10.77;;;22.50;40.80;;;;;;6114947;28;84658;-49
2023/01/23 00:13:50;;;;;;;17.15;11.63;;;22.50;40.70;;;;;;6105104;28;86394;-49
2023/01/23 00:16:50;;;;;;;18.13;11.68;;;22.50;40.80;;;;;;6104998;28;84016;-51
2023/01/23 00:19:51;;;;;;;15.57;11.25;;;22.50;40.80;;;;;;6140270;28;86661;-61
2023/01/23 00:22:51;;;;;;;15.48;10.63;;;22.40;40.70;;;;;;6114192;28;84094;-61
2023/01/23 00:25:52;;;;;;;15.85;11.02;;;22.40;41.00;;;;;;6133095;28;85862;-62
2023/01/23 00:28:52;;;;;;;16.02;11.80;;;22.40;41.10;;;;;;6128382;28;83188;-61
2023/01/23 00:31:53;;;;;;;25.00;12.82;;;22.40;41.30;;;;;;6125524;28;84490;-62
2023/01/23 00:34:53;;;;;;;17.73;11.80;;;22.40;41.10;;;;;;6138169;28;83062;-62
2023/01/23 00:37:54;;;;;;;17.33;12.68;;;22.40;41.10;;;;;;6116913;28;84317;-63
2023/01/23 00:40:55;;;;;;;20.02;12.68;;;22.40;41.10;;;;;;6138538;28;82954;-64
2023/01/23 00:43:55;;;;;;;19.40;13.15;;;22.40;41.10;;;;;;6125694;28;83807;-62
2023/01/23 00:46:56;;;;;;;16.15;12.20;;;22.40;41.60;;;;;;6124554;28;85945;-63
2023/01/23 00:49:58;;;;;;;19.90;12.93;;;22.40;41.10;;;;;;6118068;28;83105;-63
2023/01/23 00:52:59;;;;;;;22.48;13.55;;;22.40;41.50;;;;;;6113410;28;85480;-61
2023/01/23 00:55:59;;;;;;;20.80;13.80;;;22.40;41.10;;;;;;6115981;28;83227;-61
2023/01/23 00:59:00;;;;;;;19.98;13.38;;;22.40;41.20;;;;;;6115930;28;84145;-60
2023/01/23 01:02:00;;;;;;;20.13;14.05;;;22.40;41.30;;;;;;6116959;28;83122;-60
2023/01/23 01:05:01;;;;;;;21.13;14.95;;;22.30;41.20;;;;;;6143368;28;85872;-60
2023/01/23 01:08:02;;;;;;;19.58;13.60;;;22.30;41.30;;;;;;6117180;28;85884;-61
2023/01/23 01:11:02;;;;;;;20.95;13.95;;;22.30;41.50;;;;;;6132883;28;85823;-62
2023/01/23 01:14:04;;;;;;;23.27;14.13;;;22.30;41.50;;;;;;6114366;28;83233;-62
2023/01/23 01:17:05;;;;;;;20.98;12.90;;;22.30;41.50;;;;;;6104698;28;85836;-62
2023/01/23 01:20:06;;;;;;;20.10;13.52;;;22.30;41.60;;;;;;6112455;28;85726;-63
2023/01/23 01:23:07;;;;;;;23.02;14.32;;;22.30;41.60;;;;;;6132038;28;84716;-62
2023/01/23 01:26:07;;;;;;;21.48;14.10;;;22.30;41.70;;;;;;6124141;28;84617;-64
2023/01/23 01:29:08;;;;;;;21.10;14.25;;;22.30;41.70;;;;;;6104500;28;83315;-62
2023/01/23 01:32:08;;;;;;;20.92;14.23;;;22.30;41.70;;;;;;6126654;28;86232;-62
2023/01/23 01:35:09;;;;;;;24.13;15.07;;;22.20;41.60;;;;;;6114882;28;83239;-50
2023/01/23 01:38:09;;;;;;;22.77;15.43;;;22.20;41.60;;;;;;6130703;28;86270;-49
2023/01/23 01:41:11;;;;;;;22.88;14.40;;;22.30;41.80;;;;;;6114538;28;90615;-49
2023/01/23 01:44:11;;;;;;;19.67;14.10;;;22.20;41.60;;;;;;6116974;28;86023;-50
2023/01/23 01:47:14;;;;;;;20.92;14.25;;;22.20;42.30;;;;;;6111172;28;83264;-51
2023/01/23 01:50:15;;;;;;;21.77;13.70;;;22.20;41.60;;;;;;6120413;28;87250;-51
2023/01/23 01:53:16;;;;;;;21.50;14.27;;;22.20;42.20;;;;;;6110634;28;86235;-54
2023/01/23 01:56:16;;;;;;;21.98;14.23;;;22.20;42.60;;;;;;6120525;28;84012;-52
2023/01/23 01:59:17;;;;;;;19.75;13.25;;;22.20;43.10;;;;;;6136344;28;85482;-56
2023/01/23 02:02:17;;;;;;;19.90;13.68;;;22.20;43.40;;;;;;6122124;28;86110;-53
2023/01/23 02:05:19;;;;;;;20.95;13.85;;;22.20;43.60;;;;;;6111330;28;84820;-54
2023/01/23 02:08:19;;;;;;;21.00;13.68;;;22.20;43.70;;;;;;6135372;28;84749;-52
2023/01/23 02:11:21;;;;;;;18.30;11.95;;;22.20;44.00;;;;;;6111547;28;86102;-62
2023/01/23 02:14:24;;;;;;;18.80;12.75;;;22.20;44.30;;;;;;6147748;28;86078;-62
2023/01/23 02:17:25;;;;;;;17.70;11.38;;;22.20;44.00;;;;;;6114074;28;85751;-62
2023/01/23 02:20:25;;;;;;;18.90;12.80;;;22.20;44.10;;;;;;6139068;28;84154;-62
2023/01/23 02:23:26;;;;;;;20.77;12.90;;;22.20;44.00;;;;;;6123741;28;84590;-61
2023/01/23 02:26:27;;;;;;;17.73;12.80;;;22.20;43.90;;;;;;6115789;28;84172;-63
2023/01/23 02:29:28;;;;;;;17.10;12.00;;;22.20;43.80;;;;;;6108169;28;84673;-62
2023/01/23 02:32:29;;;;;;;20.58;13.60;;;22.30;43.70;;;;;;6128023;28;85247;-64
2023/01/23 02:35:30;;;;;;;18.75;13.20;;;22.20;43.60;;;;;;6135086;28;86174;-63
2023/01/23 02:38:36;;;;;;;19.13;12.30;;;22.20;43.50;;;;;;6136251;28;87248;-63
2023/01/23 02:41:37;;;;;;;22.17;13.88;;;22.20;43.50;;;;;;6134079;28;85984;-63
2023/01/23 02:44:38;;;;;;;18.58;12.88;;;22.20;43.30;;;;;;6108700;28;85912;-64
2023/01/23 02:47:40;;;;;;;20.75;13.60;;;22.20;43.40;;;;;;6123196;28;84907;-63
2023/01/23 02:50:42;;;;;;;18.58;13.23;;;22.20;43.30;;;;;;6120765;28;85587;-63
2023/01/23 02:53:42;;;;;;;19.13;13.05;;;22.20;43.40;;;;;;6122199;28;83350;-64
2023/01/23 02:56:43;;;;;;;20.38;13.60;;;22.20;43.30;;;;;;6116648;28;83071;-64
2023/01/23 03:03:04;;;;;;;20.13;12.35;;;22.20;43.60;;;;;;6124517;28;84645;-64
2023/01/23 03:06:05;;;;;;;17.92;13.05;;;22.20;43.60;;;;;;6122448;28;84742;-64
2023/01/23 03:09:06;;;;;;;20.67;13.00;;;22.20;43.60;;;;;;6125448;28;85823;-61
2023/01/23 03:12:08;;;;;;;19.77;13.55;;;22.20;43.70;;;;;;6119877;28;86551;-62
2023/01/23 03:15:08;;;;;;;21.35;13.50;;;22.20;43.70;;;;;;6122298;28;85693;-63
2023/01/23 03:18:09;;;;;;;18.20;12.18;;;22.20;43.80;;;;;;6103836;28;83165;-63
2023/01/23 03:21:11;;;;;;;18.60;12.77;;;22.20;43.90;;;;;;6131702;28;86352;-63
2023/01/23 03:24:11;;;;;;;21.65;13.35;;;22.20;43.80;;;;;;6127635;28;83839;-49
2023/01/23 03:27:13;;;;;;;21.17;13.43;;;22.10;43.80;;;;;;6109559;28;83147;-51
2023/01/23 03:30:20;;;;;;;19.35;12.45;;;22.10;43.60;;;;;;6117852;28;84074;-49
2023/01/23 03:33:21;;;;;;;21.05;13.25;;;22.10;44.00;;;;;;6111474;28;85359;-49
2023/01/23 03:36:22;;;;;;;19.05;12.85;;;22.10;43.90;;;;;;6115427;28;86634;-49
2023/01/23 03:42:45;;;;;;;23.25;14.18;;;22.10;43.80;;;;;;6126865;28;86099;-49
2023/01/23 03:45:48;;;;;;;22.25;14.00;;;22.10;43.90;;;;;;6125397;28;84370;-48
2023/01/23 03:48:49;;;;;;;21.83;13.75;;;22.10;43.80;;;;;;6124782;28;86394;-50
2023/01/23 03:51:50;;;;;;;21.63;13.73;;;22.10;44.00;;;;;;6124562;28;86078;-49
2023/01/23 03:54:50;;;;;;;22.50;13.98;;;22.10;44.00;;;;;;6123999;28;86159;-51
2023/01/23 03:57:51;;;;;;;21.63;13.48;;;22.10;43.80;;;;;;6131528;28;84833;-48
2023/01/23 04:00:51;;;;;;;19.48;13.93;;;22.10;43.80;;;;;;6127586;28;83937;-49
2023/01/23 04:03:52;;;;;;;20.52;13.27;;;22.10;43.70;;;;;;6121521;28;83248;-49
2023/01/23 04:06:52;;;;;;;20.35;13.38;;;22.10;43.90;;;;;;6125768;28;85646;-48
2023/01/23 04:09:53;;;;;;;21.15;14.30;;;22.20;43.60;;;;;;6112964;28;83228;-50
2023/01/23 04:12:54;;;;;;;24.92;15.40;;;22.20;43.80;;;;;;6114210;28;85823;-48
2023/01/23 04:15:54;;;;;;;20.10;13.93;;;22.20;43.20;;;;;;6115787;28;83314;-48
2023/01/23 04:18:55;;;;;;;20.55;15.00;;;22.20;43.00;;;;;;6114114;28;87345;-50
2023/01/23 04:21:56;;;;;;;21.02;14.43;;;22.30;42.90;;;;;;6133406;28;83419;-49
2023/01/23 04:24:56;;;;;;;22.23;14.90;;;22.30;42.80;;;;;;6139601;28;84735;-49
2023/01/23 04:27:57;;;;;;;21.63;14.00;;;22.40;42.80;;;;;;6102542;28;84596;-50
2023/01/23 04:30:58;;;;;;;23.15;14.95;;;22.40;42.80;;;;;;6131268;28;85468;-50
2023/01/23 04:34:03;;;;;;;20.83;14.30;;;22.50;42.70;;;;;;6130279;28;86402;-49
2023/01/23 04:37:04;;;;;;;22.00;14.05;;;22.50;42.60;;;;;;6134429;28;86121;-53
2023/01/23 04:40:06;;;;;;;20.00;13.27;;;22.50;42.70;;;;;;6118567;28;84119;-49
2023/01/23 04:43:15;;;;;;;22.48;13.73;;;22.60;42.70;;;;;;6131288;28;83963;-62
2023/01/23 04:46:19;;;;;;;20.75;14.13;;;22.60;42.70;;;;;;6131746;28;85819;-53
2023/01/23 04:49:28;;;;;;;19.17;13.88;;;22.70;42.70;;;;;;6125446;28;86464;-50
2023/01/23 04:52:29;;;;;;;21.70;14.18;;;22.70;42.70;;;;;;6128666;28;86138;-50
2023/01/23 04:55:31;;;;;;;24.40;14.15;;;22.70;43.00;;;;;;6106732;28;84163;-52
2023/01/23 04:58:32;;;;;;;22.23;13.30;;;22.70;43.00;;;;;;6133643;28;84351;-49
2023/01/23 05:01:36;;;;;;;21.10;13.02;;;22.80;43.20;;;;;;6113526;28;86323;-52
2023/01/23 05:04:37;;;;;;;20.80;13.60;;;22.80;43.40;;;;;;6134963;28;86213;-51
2023/01/23 05:07:38;;;;;;;22.08;13.48;;;22.80;43.10;;;;;;6138786;28;86314;-48
2023/01/23 05:10:45;;;;;;;22.00;12.35;;;22.80;43.00;;;;;;6114592;28;90422;-50
2023/01/23 05:13:47;;;;;;;23.35;13.93;;;22.80;42.90;;;;;;6111133;28;85768;-63
2023/01/23 05:16:48;;;;;;;19.65;13.10;;;22.80;42.70;;;;;;6117053;28;85263;-65
2023/01/23 05:19:52;;;;;;;19.13;13.48;;;22.80;42.90;;;;;;6137390;28;83987;-63
2023/01/23 05:22:53;;;;;;;17.45;12.73;;;22.90;42.60;;;;;;6152343;28;86100;-63
2023/01/23 05:25:59;;;;;;;20.30;12.38;;;22.90;42.40;;;;;;6110502;28;85640;-65
2023/01/23 05:29:01;;;;;;;20.13;12.43;;;22.90;42.10;;;;;;6110147;28;85852;-63
2023/01/23 05:32:03;;;;;;;19.05;12.93;;;22.90;42.10;;;;;;6113930;28;85922;-49
2023/01/23 05:35:12;;;;;;;18.90;12.40;;;22.90;42.30;;;;;;6122320;28;83130;-46
2023/01/23 05:38:15;;;;;;;19.08;12.82;;;23.00;42.40;;;;;;6118021;28;89854;-47
2023/01/23 05:41:17;;;;;;;39.10;12.57;;;23.00;42.50;;;;;;6103493;28;85884;-51
2023/01/23 05:44:42;;;;;;;18.13;11.75;;;23.00;43.70;;;;;;6117134;28;84035;-49
2023/01/23 05:47:49;;;;;;;19.77;10.70;;;23.00;43.30;;;;;;6122287;28;86056;-57
2023/01/23 05:50:51;;;;;;;18.20;11.80;;;23.00;43.70;;;;;;6110010;28;85426;-61
2023/01/23 05:53:54;;;;;;;20.65;10.73;;;23.10;43.80;;;;;;6120904;28;85093;-63
2023/01/23 05:56:55;;;;;;;16.70;11.65;;;23.00;43.80;;;;;;6117944;28;85704;-63
2023/01/23 06:00:14;;;;;;;22.95;12.13;;;23.00;43.90;;;;;;6115398;28;83334;-63
2023/01/23 06:03:15;;;;;;;19.58;11.85;;;23.10;43.90;;;;;;6112899;28;85590;-60
2023/01/23 06:06:29;;;;;;;16.92;11.30;;;23.00;44.30;;;;;;6108774;28;84217;-63
2023/01/23 06:09:30;;;;;;;19.23;12.07;;;23.10;44.20;;;;;;6123214;28;85834;-64
2023/01/23 06:12:30;;;;;;;19.70;11.40;;;23.00;44.50;;;;;;6129162;28;85982;-63
2023/01/23 06:15:31;;;;;;;22.75;12.10;;;23.00;44.50;;;;;;6120700;28;82943;-60
2023/01/23 06:18:34;;;;;;;20.33;12.02;;;23.00;44.60;;;;;;6129417;28;83228;-62
2023/01/23 06:21:35;;;;;;;17.98;11.65;;;23.00;44.90;;;;;;6117919;28;86541;-70
2023/01/23 06:24:36;;;;;;;18.85;11.80;;;22.90;44.70;;;;;;6130951;28;85002;-62
2023/01/23 06:27:37;;;;;;;22.13;11.57;;;22.90;44.50;;;;;;6119451;28;84582;-66
2023/01/23 06:30:40;;;;;;;18.02;11.40;;;22.90;44.60;;;;;;6114942;28;86089;-62
2023/01/23 06:33:52;;;;;;;20.17;12.30;;;22.90;44.50;;;;;;6122341;28;88377;-63
2023/01/23 06:36:57;;;;;;;19.70;13.05;;;22.80;43.90;;;;;;6116879;28;86225;-64
2023/01/23 06:39:58;;;;;;;17.42;12.45;;;22.80;43.60;;;;;;6122870;28;86907;-62
2023/01/23 06:42:59;;;;;;;20.25;12.30;;;22.70;43.30;;;;;;6114527;28;85799;-60
2023/01/23 06:45:59;;;;;;;22.10;12.70;;;22.70;43.10;;;;;;6125604;28;87079;-64
2023/01/23 06:49:00;;;;;;;18.30;12.57;;;22.70;42.80;;;;;;6120605;28;87581;-74
2023/01/23 06:52:02;;;;;;;20.38;13.60;;;22.60;42.40;;;;;;6146893;28;84212;-69
2023/01/23 06:55:03;;;;;;;20.20;14.07;;;22.60;42.40;;;;;;6049127;28;85951;-61
2023/01/23 06:58:03;;;;;;;20.50;13.02;;;22.60;42.50;;;;;;6102319;28;88284;-65
2023/01/23 07:01:04;;;;;;;20.38;14.05;;;22.50;42.60;;;;;;6123841;28;86490;-63
2023/01/23 07:04:43;;;;;;;22.35;15.05;;;22.50;42.60;;;;;;6107013;28;87306;-64
2023/01/23 07:07:45;;;;;;;27.00;14.68;;;22.50;42.30;;;;;;6098640;28;90908;-65
2023/01/23 07:10:45;;;;;;;20.85;13.93;;;22.50;42.90;;;;;;6120491;28;84310;-66
2023/01/23 07:13:46;;;;;;;18.83;13.55;;;22.50;42.10;;;;;;6124873;28;83383;-65
2023/01/23 07:16:48;;;;;;;22.30;15.70;;;22.40;41.90;;;;;;6134019;28;85847;-62
2023/01/23 07:19:49;;;;;;;24.08;15.68;;;22.40;41.60;;;;;;6132199;28;85433;-67
2023/01/23 07:22:51;;;;;;;28.70;16.02;;;22.40;41.70;;;;;;6126823;28;85985;-66
2023/01/23 07:25:52;;;;;;;23.30;15.73;;;22.40;41.60;;;;;;6098576;28;86024;-66
2023/01/23 07:28:52;;;;;;;24.95;15.02;;;22.40;41.60;;;;;;6100509;28;85019;-67
2023/01/23 07:31:53;;;;;;;26.23;16.90;;;22.40;42.10;;;;;;6110785;28;85321;-65
2023/01/23 07:34:54;;;;;;;23.38;15.10;;;22.40;42.20;;;;;;6117476;28;83362;-64
2023/01/23 07:37:54;;;;;;;22.58;14.02;;;22.40;42.30;;;;;;6117894;28;83008;-64
2023/01/23 07:40:55;;;;;;;23.17;15.40;;;22.40;42.50;;;;;;6123656;28;82786;-70
2023/01/23 07:43:55;;;;;;;24.33;14.40;;;22.40;43.60;;;;;;6132706;28;85577;-65
2023/01/23 07:46:56;;;;;;;24.88;14.45;;;22.40;43.40;;;;;;6116680;28;86904;-67
2023/01/23 07:49:56;;;;;;;20.48;13.95;;;22.40;43.40;;;;;;6114186;28;82870;-66
2023/01/23 07:52:57;;;;;;;21.83;13.38;;;22.40;43.60;;;;;;6118090;28;83086;-65
2023/01/23 07:55:57;;;;;;;18.90;11.63;;;22.40;44.10;;;;;;6109542;28;82906;-63
2023/01/23 07:58:58;;;;;;;19.00;12.60;;;22.40;43.90;;;;;;6120412;28;84133;-64
2023/01/23 08:01:58;;;;;;;17.13;11.68;;;22.40;44.20;;;;;;6097389;28;89529;-66
2023/01/23 08:04:59;;;;;;;19.27;11.27;;;22.40;44.30;;;;;;6110118;28;86992;-64
2023/01/23 08:07:59;;;;;;;20.30;11.63;;;22.40;44.70;;;;;;6118140;28;83007;-65
2023/01/23 08:11:00;;;;;;;17.58;10.68;;;22.40;45.10;;;;;;6110616;28;83534;-64
2023/01/23 08:14:00;;;;;;;15.55;10.13;;;22.40;45.40;;;;;;6108622;28;83339;-66
2023/01/23 08:17:01;;;;;;;15.23;10.13;;;22.40;45.40;;;;;;6105108;28;83193;-68
2023/01/23 08:20:02;;;;;;;17.77;11.27;;;22.40;45.30;;;;;;6112901;28;83716;-64
2023/01/23 08:23:02;;;;;;;18.33;10.98;;;22.40;45.60;;;;;;6101269;28;87114;-66
2023/01/23 08:26:03;;;;;;;14.93;10.10;;;22.30;45.60;;;;;;6106888;28;82839;-65
2023/01/23 08:29:03;;;;;;;15.27;10.85;;;22.30;45.00;;;;;;6107186;28;85231;-65
2023/01/23 08:32:04;;;;;;;12.23;9.25;;;22.30;45.40;;;;;;6114945;28;84853;-64
2023/01/23 08:35:04;;;;;;;13.40;9.75;;;22.40;44.70;;;;;;6126554;28;81831;-63
2023/01/23 08:38:07;;;;;;;16.13;10.23;;;22.40;44.50;;;;;;6085360;28;83229;-64
2023/01/23 08:41:10;;;;;;;16.25;10.05;;;22.40;44.30;;;;;;6113547;28;83335;-63
2023/01/23 08:44:11;;;;;;;15.48;9.98;;;22.50;44.20;;;;;;6109337;28;87092;-63
2023/01/23 08:47:11;;;;;;;17.33;10.82;;;22.50;44.00;;;;;;6111386;28;84191;-63
2023/01/23 08:50:12;;;;;;;17.63;10.50;;;22.50;43.60;;;;;;6104856;28;83211;-64
2023/01/23 08:53:12;;;;;;;17.83;10.95;;;22.60;43.40;;;;;;6105269;28;83909;-64
2023/01/23 08:56:13;;;;;;;15.18;10.85;;;22.60;43.20;;;;;;6103443;28;83607;-51
2023/01/23 08:59:14;;;;;;;15.68;10.07;;;22.60;43.00;;;;;;6104451;28;84337;-52
2023/01/23 09:02:14;;;;;;;16.55;10.27;;;22.70;43.00;;;;;;6103701;28;84665;-50
2023/01/23 09:05:15;;;;;;;13.80;9.90;;;22.70;42.90;;;;;;6107049;28;84684;-51
2023/01/23 09:08:16;;;;;;;14.82;10.20;;;22.70;42.70;;;;;;6104840;28;80381;-49
2023/01/23 09:11:17;;;;;;;13.48;9.75;;;22.80;42.60;;;;;;6106948;28;83107;-50
2023/01/23 09:14:17;;;;;;;12.52;8.95;;;22.80;42.50;;;;;;6113077;28;82748;-51
2023/01/23 09:17:18;;;;;;;14.88;9.32;;;22.80;42.40;;;;;;6110365;28;80715;-53
2023/01/23 09:20:19;;;;;;;15.27;10.10;;;22.80;42.40;;;;;;6115178;28;80263;-52
2023/01/23 09:23:19;;;;;;;13.40;9.30;;;22.80;42.30;;;;;;6077518;28;84337;-49
2023/01/23 09:26:20;;;;;;;13.93;9.35;;;22.90;42.40;;;;;;6121528;28;82923;-53
2023/01/23 09:29:20;;;;;;;10.70;8.32;;;22.90;42.50;;;;;;6120107;28;81593;-52
2023/01/23 09:32:21;;;;;;;12.70;9.05;;;22.90;42.40;;;;;;6110732;28;81042;-51
2023/01/23 09:35:22;;;;;;;13.57;8.93;;;22.90;42.40;;;;;;6125276;28;80867;-53
2023/01/23 09:38:22;;;;;;;12.25;8.35;;;22.90;42.40;;;;;;6138278;28;81029;-50
2023/01/23 09:41:23;;;;;;;11.30;8.02;;;22.90;42.30;;;;;;6106950;28;82949;-52
2023/01/23 09:44:23;;;;;;;11.45;8.50;;;22.90;42.10;;;;;;6107962;28;81344;-49
2023/01/23 09:47:24;;;;;;;11.68;8.55;;;22.90;42.10;;;;;;6107213;28;84632;-49
2023/01/23 09:50:24;;;;;;;12.48;8.80;;;23.00;42.00;;;;;;6118356;28;82162;-51
2023/01/23 09:53:25;;;;;;;13.10;9.27;;;23.00;41.90;;;;;;6095719;28;83410;-52
2023/01/23 09:56:26;;;;;;;12.63;9.48;;;23.00;41.80;;;;;;6112175;28;80360;-51
2023/01/23 09:59:26;;;;;;;13.43;9.77;;;23.00;41.80;;;;;;6117815;28;80669;-50
2023/01/23 10:02:27;;;;;;;12.27;9.88;;;23.00;41.70;;;;;;6111791;28;80395;-52
2023/01/23 10:05:27;;;;;;;12.23;8.77;;;23.00;41.60;;;;;;6115010;28;82289;-50
2023/01/23 10:08:28;;;;;;;14.50;10.18;;;23.00;41.50;;;;;;6107640;28;85485;-50
2023/01/23 10:11:28;;;;;;;14.63;10.18;;;23.00;41.40;;;;;;6086236;28;89270;-48
2023/01/23 10:14:29;;;;;;;14.20;9.45;;;23.00;41.30;;;;;;6102491;28;88812;-48
2023/01/23 10:17:29;;;;;;;14.75;9.15;;;23.00;41.30;;;;;;6094185;28;83010;-50
2023/01/23 10:20:30;;;;;;;12.95;9.82;;;23.00;41.30;;;;;;6103775;28;89506;-48
2023/01/23 10:23:31;;;;;;;12.45;9.23;;;23.00;41.30;;;;;;6091128;28;83415;-51
2023/01/23 10:26:31;;;;;;;15.90;10.15;;;23.00;41.30;;;;;;6102434;28;81227;-53
2023/01/23 10:29:32;;;;;;;15.10;10.07;;;23.00;41.20;;;;;;6103267;28;84187;-48
2023/01/23 10:32:32;;;;;;;12.35;9.43;;;23.00;41.20;;;;;;6108442;28;85031;-52
2023/01/23 10:35:33;;;;;;;19.65;11.35;;;23.10;41.20;;;;;;6107798;28;85887;-52
2023/01/23 10:38:33;;;;;;;14.70;10.13;;;23.00;41.30;;;;;;6101086;28;86295;-48
2023/01/23 10:41:34;;;;;;;12.65;9.57;;;23.00;41.20;;;;;;6099721;28;83571;-50
2023/01/23 10:44:34;;;;;;;12.93;9.65;;;23.00;41.20;;;;;;6073275;28;81904;-57
2023/01/23 10:47:35;;;;;;;13.48;9.02;;;22.90;41.10;;;;;;6082255;28;82911;-55
2023/01/23 10:50:36;;;;;;;12.10;9.57;;;22.90;41.50;;;;;;6092279;28;82227;-56
2023/01/23 10:53:36;;;;;;;12.77;9.32;;;22.90;41.20;;;;;;6082457;28;82546;-56
2023/01/23 10:56:37;;;;;;;13.85;9.82;;;22.90;41.30;;;;;;6098893;28;80907;-54
2023/01/23 10:59:37;;;;;;;14.45;9.95;;;22.90;41.70;;;;;;6082883;28;86223;-56
2023/01/23 11:02:39;;;;;;;14.00;9.95;;;22.80;41.50;;;;;;6103377;28;87293;-54
2023/01/23 11:05:40;;;;;;;15.88;9.73;;;22.80;41.20;;;;;;6106974;28;80943;-55
2023/01/23 11:08:40;;;;;;;14.18;10.52;;;22.80;41.30;;;;;;6100941;28;80705;-52
2023/01/23 11:11:41;;;;;;;13.63;9.80;;;22.80;41.40;;;;;;6126660;28;83483;-55
2023/01/23 11:14:41;;;;;;;16.25;10.65;;;22.80;41.50;;;;;;6118180;28;83223;-54
2023/01/23 11:17:42;;;;;;;14.80;9.80;;;22.70;41.50;;;;;;6117081;28;84089;-55
2023/01/23 11:20:43;;;;;;;15.60;10.02;;;22.70;41.60;;;;;;6120726;28;82713;-55
2023/01/23 11:23:43;;;;;;;11.45;9.75;;;22.70;41.70;;;;;;6109371;28;86256;-57
2023/01/23 11:26:44;;;;;;;11.95;9.13;;;22.70;41.70;;;;;;6120071;28;83004;-56
2023/01/23 11:29:45;;;;;;;14.07;9.57;;;22.70;41.70;;;;;;6096011;28;81307;-53
2023/01/23 11:32:45;;;;;;;12.10;8.88;;;22.70;41.60;;;;;;6124758;28;80853;-55
2023/01/23 11:35:46;;;;;;;11.77;9.02;;;22.60;41.80;;;;;;6114672;28;80529;-56
2023/01/23 11:38:46;;;;;;;12.93;8.40;;;22.70;42.00;;;;;;6130802;28;81107;-56
2023/01/23 11:41:47;;;;;;;10.48;8.20;;;22.70;42.20;;;;;;6117763;28;80614;-53
2023/01/23 11:44:48;;;;;;;10.20;8.07;;;22.70;42.00;;;;;;6118273;28;80705;-55
2023/01/23 11:47:49;;;;;;;10.43;8.48;;;22.70;41.80;;;;;;6125559;28;80351;-55
2023/01/23 11:50:53;;;;;;;9.95;7.95;;;22.60;41.80;;;;;;6120159;28;80373;-54
2023/01/23 11:53:53;;;;;;;10.93;8.25;;;22.60;41.70;;;;;;6118214;28;81775;-55
2023/01/23 11:56:54;;;;;;;10.18;7.50;;;22.60;41.70;;;;;;6134159;28;80523;-55
2023/01/23 11:59:54;;;;;;;11.57;8.48;;;22.60;41.70;;;;;;6126481;28;82674;-63
2023/01/23 12:02:56;;;;;;;11.05;7.78;;;22.60;41.70;;;;;;6117155;28;80266;-64
2023/01/23 12:05:57;;;;;;;9.57;7.90;;;22.60;41.70;;;;;;6122241;28;80491;-64
2023/01/23 12:08:57;;;;;;;8.55;7.03;;;22.50;41.80;;;;;;6120017;28;80202;-60
2023/01/23 12:11:58;;;;;;;9.75;7.78;;;22.50;41.80;;;;;;6114357;28;81656;-62
2023/01/23 12:14:58;;;;;;;10.20;7.97;;;22.50;41.80;;;;;;6125447;28;82334;-62
2023/01/23 12:17:59;;;;;;;8.77;7.32;;;22.50;41.80;;;;;;6131175;28;80763;-63
2023/01/23 12:21:01;;;;;;;10.55;8.70;;;22.50;41.90;;;;;;6122925;28;80547;-63
2023/01/23 12:24:01;;;;;;;9.10;7.55;;;22.50;41.90;;;;;;6110419;28;83220;-65
2023/01/23 12:27:02;;;;;;;10.55;7.90;;;22.40;41.90;;;;;;6105951;28;81287;-65
2023/01/23 12:30:03;;;;;;;9.55;7.25;;;22.40;42.00;;;;;;6122699;28;81059;-65
2023/01/23 12:33:03;;;;;;;11.65;7.57;;;22.40;42.40;;;;;;6119227;28;81441;-68
2023/01/23 12:36:04;;;;;;;11.30;8.18;;;22.40;42.50;;;;;;6109573;28;83847;-56
2023/01/23 12:39:04;;;;;;;10.50;8.27;;;22.40;42.40;;;;;;6103370;28;80724;-53
2023/01/23 12:42:05;;;;;;;10.48;7.57;;;22.40;42.60;;;;;;6124752;28;81558;-54
2023/01/23 12:45:05;;;;;;;11.05;7.57;;;22.40;42.50;;;;;;6121911;28;81816;-53
2023/01/23 12:48:06;;;;;;;9.70;7.22;;;22.40;42.30;;;;;;6118218;28;83691;-55
2023/01/23 12:51:06;;;;;;;8.35;7.00;;;22.50;42.20;;;;;;6125648;28;82822;-56
2023/01/23 12:54:07;;;;;;;11.38;7.70;;;22.50;42.10;;;;;;6120831;28;80907;-55
2023/01/23 12:57:07;;;;;;;9.57;7.60;;;22.60;41.90;;;;;;6121243;28;82878;-54
2023/01/23 13:00:08;;;;;;;9.00;7.65;;;22.60;41.90;;;;;;6130809;28;80273;-54
2023/01/23 13:03:09;;;;;;;10.07;7.53;;;22.70;41.80;;;;;;6127895;28;80714;-55
2023/01/23 13:06:09;;;;;;;9.88;7.30;;;22.70;41.70;;;;;;6126078;28;80541;-56
2023/01/23 13:09:10;;;;;;;8.32;7.20;;;22.70;41.50;;;;;;6142364;28;82940;-54
2023/01/23 13:12:17;;;;;;;9.40;7.40;;;22.80;41.60;;;;;;6126840;28;81162;-55
2023/01/23 13:15:24;;;;;;;9.30;7.15;;;22.80;41.60;;;;;;6130114;28;80735;-53
2023/01/23 13:18:26;;;;;;;11.40;7.50;;;22.90;41.50;;;;;;6116734;28;80433;-55
2023/01/23 13:28:06;;;;;;;9.95;7.18;;;23.00;41.60;;;;;;6126550;28;81314;-56
2023/01/23 13:31:06;;;;;;;10.73;8.00;;;23.00;41.50;;;;;;6109915;28;80426;-57
2023/01/23 13:34:07;;;;;;;9.18;7.30;;;23.00;42.00;;;;;;6121820;28;80598;-69
2023/01/23 13:37:07;;;;;;;9.35;7.35;;;23.10;41.30;;;;;;6113668;28;80569;-56
2023/01/23 13:40:08;;;;;;;9.75;7.70;;;23.10;41.10;;;;;;6121585;28;80294;-58
2023/01/23 13:43:08;;;;;;;9.23;7.35;;;23.10;40.90;;;;;;6123543;28;80630;-55
2023/01/23 13:46:09;;;;;;;11.98;7.55;;;23.10;40.90;;;;;;6125363;28;80394;-57
2023/01/23 13:59:06;;;;;;;10.60;8.00;;;23.10;40.60;;;;;;6124818;28;81470;-63
2023/01/23 14:05:26;;;;;;;10.95;8.23;;;23.10;40.60;;;;;;6128512;28;85137;-64
2023/01/23 14:08:27;;;;;;;9.68;7.60;;;23.10;40.60;;;;;;6114565;28;83399;-61
2023/01/23 14:11:27;;;;;;;13.32;8.75;;;23.10;40.50;;;;;;6118995;28;81580;-64
2023/01/23 14:17:47;;;;;;;12.15;8.55;;;23.10;40.70;;;;;;6119462;28;80722;-62
2023/01/23 14:20:50;;;;;;;11.68;7.25;;;23.10;41.10;;;;;;6106842;28;80499;-58
2023/01/23 14:23:51;;;;;;;13.35;7.93;;;23.10;41.40;;;;;;6115094;28;80210;-62
2023/01/23 14:26:51;;;;;;;10.90;8.15;;;23.10;41.50;;;;;;6113157;28;80294;-61
2023/01/23 14:29:52;;;;;;;12.38;7.90;;;23.10;41.60;;;;;;6114373;28;80165;-63
2023/01/23 14:32:52;;;;;;;14.25;9.25;;;23.00;41.70;;;;;;6117689;28;81768;-63
2023/01/23 14:35:54;;;;;;;10.93;8.25;;;23.00;42.10;;;;;;6113821;28;84107;-62
2023/01/23 14:38:55;;;;;;;13.48;8.20;;;23.00;42.10;;;;;;6100688;28;84339;-62
2023/01/23 14:41:56;;;;;;;13.60;8.68;;;23.00;42.20;;;;;;6120779;28;80169;-62
2023/01/23 14:44:56;;;;;;;13.10;8.65;;;23.00;42.30;;;;;;6115248;28;80676;-64
2023/01/23 14:47:57;;;;;;;12.80;8.82;;;23.00;42.60;;;;;;6138033;28;80126;-61
2023/01/23 14:50:57;;;;;;;12.30;8.25;;;22.90;42.50;;;;;;6112763;28;80891;-61
2023/01/23 14:53:58;;;;;;;13.10;8.88;;;22.90;42.70;;;;;;6111294;28;80299;-59
2023/01/23 14:56:58;;;;;;;13.85;9.43;;;22.80;42.70;;;;;;6116800;28;80400;-59
2023/01/23 14:59:59;;;;;;;13.63;9.00;;;22.80;42.80;;;;;;6149651;28;81482;-60
2023/01/23 15:02:59;;;;;;;12.75;9.07;;;22.80;42.80;;;;;;6132961;28;83623;-61
2023/01/23 15:06:00;;;;;;;13.52;8.40;;;22.80;42.90;;;;;;6137486;28;80637;-59
2023/01/23 15:09:01;;;;;;;16.45;9.20;;;22.90;42.70;;;;;;6141471;28;81946;-65
2023/01/23 15:12:01;;;;;;;12.07;8.68;;;22.90;42.70;;;;;;6141325;28;81465;-62
2023/01/23 15:15:03;;;;;;;11.88;8.45;;;22.90;42.70;;;;;;6125448;28;80433;-61
2023/01/23 15:18:04;;;;;;;13.48;9.00;;;22.90;42.60;;;;;;6108496;28;82176;-61
2023/01/23 15:21:05;;;;;;;14.73;9.15;;;22.90;42.60;;;;;;6114939;28;81174;-59
2023/01/23 15:24:05;;;;;;;11.60;8.77;;;22.90;42.50;;;;;;6107610;28;80998;-61
2023/01/23 15:27:06;;;;;;;11.68;8.70;;;22.90;42.30;;;;;;6120773;28;84099;-60
2023/01/23 15:30:07;;;;;;;13.90;9.63;;;22.90;42.50;;;;;;6119633;28;81289;-59
2023/01/23 15:33:09;;;;;;;16.85;9.55;;;22.90;42.70;;;;;;6130876;28;80453;-60
2023/01/23 15:36:10;;;;;;;12.45;8.65;;;22.80;42.70;;;;;;6085721;28;80485;-60
2023/01/23 15:39:11;;;;;;;14.80;9.65;;;22.80;42.60;;;;;;6141824;28;80596;-59
2023/01/23 15:42:11;;;;;;;15.90;9.52;;;22.90;43.10;;;;;;6127946;28;82328;-62
2023/01/23 15:45:12;;;;;;;14.20;10.35;;;22.90;43.30;;;;;;6145228;28;81394;-60
2023/01/23 15:48:13;;;;;;;13.90;8.98;;;22.90;43.80;;;;;;6142028;28;83566;-62
2023/01/23 15:51:14;;;;;;;19.75;10.38;;;22.90;43.60;;;;;;6136738;28;83266;-62
2023/01/23 15:54:14;;;;;;;15.60;9.98;;;22.90;43.90;;;;;;6125929;28;83242;-60